createdAt,value
2023-04-09T00:00:33.585Z,15.50
2023-04-09T00:01:35.403Z,14.98
2023-04-09T00:02:37.235Z,14.10
2023-04-09T00:03:39.595Z,14.82
2023-04-09T00:04:41.575Z,15.02
2023-04-09T00:05:43.308Z,14.13
2023-04-09T00:06:45.074Z,16.30
2023-04-09T00:07:46.796Z,14.55
2023-04-09T00:08:48.525Z,12.90
2023-04-09T00:09:50.292Z,13.27
2023-04-09T00:10:53.382Z,15.20
2023-04-09T00:11:55.190Z,14.82
2023-04-09T00:12:56.946Z,16.25
2023-04-09T00:13:59.023Z,14.15
2023-04-09T00:15:00.778Z,16.98
2023-04-09T00:16:02.576Z,17.05
2023-04-09T00:17:04.324Z,14.77
2023-04-09T00:18:06.098Z,15.52
2023-04-09T00:19:07.857Z,15.80
2023-04-09T00:20:09.749Z,14.88
2023-04-09T00:21:11.554Z,15.98
2023-04-09T00:22:13.316Z,14.82
2023-04-09T00:23:15.014Z,16.40
2023-04-09T00:24:17.452Z,17.50
2023-04-09T00:25:19.239Z,15.73
2023-04-09T00:26:20.985Z,15.00
2023-04-09T00:27:22.967Z,18.20
2023-04-09T00:28:24.719Z,16.33
2023-04-09T00:29:26.498Z,16.83
2023-04-09T00:30:31.688Z,16.15
2023-04-09T00:31:33.461Z,16.40
2023-04-09T00:32:35.245Z,18.80
2023-04-09T00:33:36.980Z,17.80
2023-04-09T00:34:38.791Z,19.85
2023-04-09T00:35:40.546Z,17.48
2023-04-09T00:36:42.291Z,15.50
2023-04-09T00:37:44.311Z,16.27
2023-04-09T00:38:46.046Z,19.02
2023-04-09T00:39:47.789Z,15.30
2023-04-09T00:40:50.491Z,17.17
2023-04-09T00:42:00.257Z,15.40
2023-04-09T00:43:01.965Z,15.30
2023-04-09T00:44:03.728Z,15.43
2023-04-09T00:45:06.448Z,17.95
2023-04-09T00:46:08.185Z,20.92
2023-04-09T00:47:10.295Z,16.60
2023-04-09T00:48:13.875Z,18.20
2023-04-09T00:49:15.639Z,16.02
2023-04-09T00:50:17.417Z,19.77
2023-04-09T00:51:19.222Z,17.80
2023-04-09T00:52:21.441Z,16.23
2023-04-09T00:53:23.412Z,17.83
2023-04-09T00:54:25.216Z,17.80
2023-04-09T00:55:27.116Z,15.77
2023-04-09T00:56:30.397Z,15.23
2023-04-09T00:57:32.464Z,15.50
2023-04-09T00:58:34.180Z,15.18
2023-04-09T00:59:38.836Z,15.82
2023-04-09T01:00:40.897Z,16.33
2023-04-09T01:01:42.778Z,15.95
2023-04-09T01:02:44.902Z,15.20
2023-04-09T01:03:47.027Z,16.55
2023-04-09T01:04:51.133Z,14.48
2023-04-09T01:05:58.759Z,15.38
2023-04-09T01:07:12.586Z,16.77
2023-04-09T01:08:39.252Z,14.77
2023-04-09T01:09:51.721Z,16.65
2023-04-09T01:11:30.991Z,15.40
2023-04-09T01:12:36.832Z,14.43
2023-04-09T01:14:05.287Z,16.52
2023-04-09T01:15:13.856Z,16.58
2023-04-09T01:16:19.318Z,16.58
2023-04-09T01:17:53.007Z,14.75
2023-04-09T01:19:07.912Z,13.13
2023-04-09T01:20:14.813Z,14.32
2023-04-09T01:21:20.524Z,14.73
2023-04-09T01:22:50.025Z,14.05
2023-04-09T01:24:16.243Z,13.65
2023-04-09T01:26:00.947Z,14.53
2023-04-09T01:27:09.750Z,16.05
2023-04-09T01:28:33.073Z,14.93
2023-04-09T01:29:45.378Z,14.15
2023-04-09T01:30:53.822Z,17.88
2023-04-09T01:31:56.090Z,15.70
2023-04-09T01:32:58.932Z,15.95
2023-04-09T01:34:01.920Z,14.57
2023-04-09T01:35:06.301Z,12.48
2023-04-09T01:36:08.963Z,14.48
2023-04-09T01:37:12.455Z,15.43
2023-04-09T01:38:16.649Z,13.50
2023-04-09T01:39:18.947Z,13.57
2023-04-09T01:40:20.844Z,14.88
2023-04-09T01:41:24.944Z,17.98
2023-04-09T01:42:27.778Z,15.68
2023-04-09T01:43:32.128Z,16.35
2023-04-09T01:44:34.112Z,16.30
2023-04-09T01:45:35.968Z,15.93
2023-04-09T01:46:39.718Z,15.40
2023-04-09T01:47:42.234Z,17.50
2023-04-09T01:48:44.895Z,14.65
2023-04-09T01:49:46.974Z,15.75
2023-04-09T01:51:16.745Z,16.67
2023-04-09T01:52:18.558Z,14.20
2023-04-09T01:53:21.667Z,13.68
2023-04-09T01:54:23.458Z,16.20
2023-04-09T01:55:25.206Z,17.45
2023-04-09T01:56:26.934Z,16.33
2023-04-09T01:57:28.600Z,17.02
2023-04-09T01:58:30.292Z,17.60
2023-04-09T01:59:32.026Z,18.05
2023-04-09T02:00:40.457Z,18.88
2023-04-09T02:01:54.788Z,16.98
2023-04-09T02:03:19.646Z,20.05
2023-04-09T02:04:30.013Z,19.08
2023-04-09T02:05:38.598Z,21.08
2023-04-09T02:06:48.389Z,20.08
2023-04-09T02:07:56.190Z,22.48
2023-04-09T02:09:00.457Z,20.65
2023-04-09T02:10:03.152Z,21.80
2023-04-09T02:11:09.953Z,21.77
2023-04-09T02:12:14.435Z,22.25
2023-04-09T02:13:18.445Z,22.92
2023-04-09T02:14:20.878Z,22.67
2023-04-09T02:15:23.484Z,23.05
2023-04-09T02:16:26.915Z,22.63
2023-04-09T02:17:28.705Z,21.17
2023-04-09T02:18:30.946Z,22.02
2023-04-09T02:19:43.514Z,20.52
2023-04-09T02:20:45.201Z,23.03
2023-04-09T02:21:46.937Z,21.42
2023-04-09T02:22:48.722Z,23.73
2023-04-09T02:23:50.849Z,23.50
2023-04-09T02:24:52.633Z,24.05
2023-04-09T02:25:54.595Z,21.63
2023-04-09T02:26:56.277Z,24.38
2023-04-09T02:27:57.946Z,22.75
2023-04-09T02:28:59.600Z,23.67
2023-04-09T02:30:01.318Z,24.27
2023-04-09T02:31:03.080Z,23.23
2023-04-09T02:32:05.106Z,23.33
2023-04-09T02:33:07.162Z,24.90
2023-04-09T02:34:08.828Z,22.65
2023-04-09T02:35:10.512Z,24.30
2023-04-09T02:36:13.373Z,21.95
2023-04-09T02:37:15.126Z,23.88
2023-04-09T02:38:16.848Z,25.00
2023-04-09T02:39:18.555Z,24.55
2023-04-09T02:40:20.369Z,22.45
2023-04-09T02:41:22.026Z,21.80
2023-04-09T02:42:23.894Z,22.25
2023-04-09T02:43:25.596Z,24.27
2023-04-09T02:44:27.331Z,25.20
2023-04-09T02:45:29.067Z,23.40
2023-04-09T02:46:30.926Z,25.65
2023-04-09T02:47:32.604Z,25.25
2023-04-09T02:48:34.280Z,22.90
2023-04-09T02:49:35.991Z,22.80
2023-04-09T02:50:37.696Z,22.98
2023-04-09T02:51:39.342Z,25.43
2023-04-09T02:52:41.032Z,21.55
2023-04-09T02:53:42.691Z,24.83
2023-04-09T02:54:44.417Z,27.13
2023-04-09T02:55:46.113Z,24.48
2023-04-09T02:56:47.783Z,22.60
2023-04-09T02:57:49.449Z,23.67
2023-04-09T02:58:51.250Z,23.38
2023-04-09T02:59:53.058Z,22.73
2023-04-09T03:00:54.775Z,22.73
2023-04-09T03:01:56.519Z,21.77
2023-04-09T03:02:58.510Z,21.67
2023-04-09T03:04:01.174Z,19.67
2023-04-09T03:05:03.548Z,21.90
2023-04-09T03:06:05.300Z,21.30
2023-04-09T03:07:06.977Z,21.95
2023-04-09T03:08:08.701Z,21.17
2023-04-09T03:09:10.420Z,21.98
2023-04-09T03:10:12.121Z,21.25
2023-04-09T03:11:13.842Z,22.00
2023-04-09T03:12:15.568Z,23.87
2023-04-09T03:13:17.269Z,20.15
2023-04-09T03:14:19.030Z,20.73
2023-04-09T03:15:20.726Z,22.38
2023-04-09T03:16:25.071Z,22.00
2023-04-09T03:17:26.803Z,20.85
2023-04-09T03:18:28.502Z,21.13
2023-04-09T03:19:31.527Z,19.40
2023-04-09T03:20:33.305Z,21.85
2023-04-09T03:21:35.018Z,18.35
2023-04-09T03:22:37.822Z,21.20
2023-04-09T03:23:39.571Z,17.42
2023-04-09T03:24:41.301Z,20.13
2023-04-09T03:25:42.947Z,19.33
2023-04-09T03:26:44.597Z,18.83
2023-04-09T03:27:46.602Z,19.35
2023-04-09T03:28:48.476Z,18.80
2023-04-09T03:29:50.166Z,19.65
2023-04-09T03:30:51.846Z,17.33
2023-04-09T03:31:53.574Z,18.88
2023-04-09T03:32:55.287Z,18.87
2023-04-09T03:33:57.051Z,18.65
2023-04-09T03:34:58.751Z,18.77
2023-04-09T03:36:00.518Z,18.77
2023-04-09T03:37:02.248Z,17.70
2023-04-09T03:38:04.001Z,17.10
2023-04-09T03:39:05.613Z,19.42
2023-04-09T03:40:07.920Z,18.38
2023-04-09T03:41:09.579Z,18.92
2023-04-09T03:42:11.370Z,17.83
2023-04-09T03:43:13.125Z,19.47
2023-04-09T03:44:14.796Z,21.50
2023-04-09T03:45:16.525Z,19.33
2023-04-09T03:46:18.823Z,18.30
2023-04-09T03:47:20.633Z,17.50
2023-04-09T03:48:22.443Z,17.67
2023-04-09T03:49:24.163Z,16.98
2023-04-09T03:50:25.853Z,17.55
2023-04-09T03:51:27.567Z,18.38
2023-04-09T03:52:29.231Z,17.27
2023-04-09T03:53:31.067Z,17.67
2023-04-09T03:54:32.721Z,18.13
2023-04-09T03:55:34.412Z,16.95
2023-04-09T03:56:36.068Z,17.50
2023-04-09T03:57:37.749Z,19.27
2023-04-09T03:58:39.411Z,16.23
2023-04-09T03:59:41.108Z,18.23
2023-04-09T04:00:42.772Z,18.52
2023-04-09T04:01:44.491Z,19.50
2023-04-09T04:02:46.417Z,20.30
2023-04-09T04:03:48.360Z,17.27
2023-04-09T04:04:50.260Z,18.02
2023-04-09T04:05:52.054Z,16.00
2023-04-09T04:06:53.740Z,16.65
2023-04-09T04:07:55.423Z,20.95
2023-04-09T04:08:57.126Z,20.40
2023-04-09T04:09:58.774Z,18.55
2023-04-09T04:11:04.625Z,22.10
2023-04-09T04:12:06.343Z,20.23
2023-04-09T04:13:08.029Z,17.95
2023-04-09T04:14:09.769Z,18.33
2023-04-09T04:15:11.886Z,19.95
2023-04-09T04:16:13.648Z,18.83
2023-04-09T04:17:15.322Z,21.90
2023-04-09T04:18:17.014Z,22.95
2023-04-09T04:19:18.690Z,22.20
2023-04-09T04:20:20.508Z,23.33
2023-04-09T04:21:22.217Z,21.05
2023-04-09T04:22:26.093Z,23.15
2023-04-09T04:23:28.047Z,22.83
2023-04-09T04:24:29.774Z,21.97
2023-04-09T04:25:31.477Z,22.58
2023-04-09T04:26:33.217Z,22.02
2023-04-09T04:27:34.886Z,20.65
2023-04-09T04:28:39.846Z,18.95
2023-04-09T04:29:41.558Z,17.63
2023-04-09T04:30:43.249Z,19.77
2023-04-09T04:31:45.018Z,18.27
2023-04-09T04:32:46.814Z,18.00
2023-04-09T04:33:48.478Z,23.77
2023-04-09T04:34:50.664Z,18.57
2023-04-09T04:35:52.385Z,20.70
2023-04-09T04:36:54.101Z,21.23
2023-04-09T04:37:55.777Z,20.20
2023-04-09T04:38:57.416Z,18.92
2023-04-09T04:40:01.695Z,20.73
2023-04-09T04:41:03.735Z,18.20
2023-04-09T04:42:05.382Z,23.17
2023-04-09T04:43:07.008Z,17.58
2023-04-09T04:44:08.645Z,19.65
2023-04-09T04:45:10.465Z,20.57
2023-04-09T04:46:12.092Z,18.95
2023-04-09T04:47:13.853Z,19.63
2023-04-09T04:48:15.503Z,19.33
2023-04-09T04:49:17.162Z,20.95
2023-04-09T04:50:18.907Z,21.20
2023-04-09T04:51:20.568Z,19.60
2023-04-09T04:52:22.255Z,19.35
2023-04-09T04:53:24.296Z,20.77
2023-04-09T04:54:26.029Z,22.90
2023-04-09T04:55:27.762Z,20.30
2023-04-09T04:56:29.521Z,18.85
2023-04-09T04:57:31.222Z,21.80
2023-04-09T04:58:32.899Z,22.98
2023-04-09T04:59:37.878Z,17.05
2023-04-09T05:00:39.576Z,18.42
2023-04-09T05:01:41.363Z,19.90
2023-04-09T05:02:43.221Z,17.73
2023-04-09T05:03:45.020Z,20.40
2023-04-09T05:04:46.764Z,20.55
2023-04-09T05:05:48.442Z,20.60
2023-04-09T05:06:50.247Z,19.63
2023-04-09T05:07:51.897Z,18.90
2023-04-09T05:08:53.729Z,21.10
2023-04-09T05:09:55.591Z,17.75
2023-04-09T05:10:57.285Z,20.27
2023-04-09T05:11:58.993Z,20.52
2023-04-09T05:13:00.666Z,18.17
2023-04-09T05:14:02.294Z,20.55
2023-04-09T05:15:04.466Z,18.55
2023-04-09T05:16:06.501Z,16.80
2023-04-09T05:17:08.230Z,22.67
2023-04-09T05:18:09.919Z,20.33
2023-04-09T05:19:11.566Z,18.35
2023-04-09T05:20:13.270Z,20.35
2023-04-09T05:21:14.955Z,21.08
2023-04-09T05:22:16.715Z,16.38
2023-04-09T05:23:18.391Z,17.25
2023-04-09T05:24:20.263Z,18.38
2023-04-09T05:25:21.947Z,19.42
2023-04-09T05:26:23.857Z,19.97
2023-04-09T05:27:25.581Z,18.13
2023-04-09T05:28:27.277Z,17.38
2023-04-09T05:29:28.986Z,17.75
2023-04-09T05:30:30.697Z,17.73
2023-04-09T05:31:32.350Z,19.48
2023-04-09T05:32:34.092Z,18.13
2023-04-09T05:33:35.784Z,16.10
2023-04-09T05:34:37.473Z,18.20
2023-04-09T05:35:39.519Z,19.98
2023-04-09T05:36:41.247Z,20.10
2023-04-09T05:37:42.905Z,18.00
2023-04-09T05:38:46.899Z,18.40
2023-04-09T05:39:48.577Z,15.07
2023-04-09T05:40:50.328Z,17.95
2023-04-09T05:41:52.054Z,19.60
2023-04-09T05:42:53.711Z,19.88
2023-04-09T05:43:55.386Z,20.75
2023-04-09T05:44:57.042Z,21.50
2023-04-09T05:45:58.990Z,21.85
2023-04-09T05:47:00.874Z,22.60
2023-04-09T05:48:02.829Z,19.58
2023-04-09T05:49:04.578Z,20.38
2023-04-09T05:50:06.620Z,18.23
2023-04-09T05:51:08.368Z,16.58
2023-04-09T05:52:10.035Z,16.25
2023-04-09T05:53:11.941Z,20.38
2023-04-09T05:54:13.699Z,23.38
2023-04-09T05:55:15.359Z,20.95
2023-04-09T05:56:16.992Z,21.27
2023-04-09T05:57:18.623Z,17.93
2023-04-09T05:58:21.109Z,16.92
2023-04-09T05:59:22.878Z,17.20
2023-04-09T06:00:24.649Z,18.60
2023-04-09T06:01:26.383Z,17.92
2023-04-09T06:02:28.865Z,18.42
2023-04-09T06:03:30.834Z,19.33
2023-04-09T06:04:32.670Z,18.35
2023-04-09T06:05:34.390Z,17.92
2023-04-09T06:06:38.845Z,19.45
2023-04-09T06:07:40.563Z,19.70
2023-04-09T06:08:42.369Z,18.55
2023-04-09T06:09:44.062Z,17.92
2023-04-09T06:10:45.865Z,22.20
2023-04-09T06:11:47.594Z,17.33
2023-04-09T06:12:49.295Z,19.05
2023-04-09T06:13:51.683Z,17.10
2023-04-09T06:14:53.643Z,15.13
2023-04-09T06:15:55.362Z,18.77
2023-04-09T06:16:59.125Z,15.02
2023-04-09T06:18:00.813Z,14.87
2023-04-09T06:19:02.552Z,15.70
2023-04-09T06:20:04.968Z,17.30
2023-04-09T06:21:08.200Z,12.60
2023-04-09T06:22:10.506Z,16.95
2023-04-09T06:23:12.143Z,16.20
2023-04-09T06:24:13.783Z,15.77
2023-04-09T06:25:15.450Z,18.15
2023-04-09T06:26:17.142Z,22.48
2023-04-09T06:27:18.839Z,19.13
2023-04-09T06:28:20.474Z,18.73
2023-04-09T06:29:24.232Z,17.10
2023-04-09T06:30:26.144Z,17.13
2023-04-09T06:31:27.869Z,20.60
2023-04-09T06:32:29.789Z,20.00
2023-04-09T06:33:32.417Z,20.23
2023-04-09T06:34:34.156Z,21.23
2023-04-09T06:35:35.892Z,16.15
2023-04-09T06:36:37.590Z,16.52
2023-04-09T06:37:39.323Z,15.43
2023-04-09T06:38:41.085Z,15.17
2023-04-09T06:39:50.609Z,16.00
2023-04-09T06:40:59.734Z,21.15
2023-04-09T06:42:01.421Z,17.65
2023-04-09T06:43:03.060Z,17.40
2023-04-09T06:44:04.702Z,18.35
2023-04-09T06:45:07.399Z,16.10
2023-04-09T06:46:09.140Z,16.95
2023-04-09T06:47:11.001Z,16.65
2023-04-09T06:48:12.655Z,17.20
2023-04-09T06:49:14.454Z,19.37
2023-04-09T06:50:16.207Z,18.10
2023-04-09T06:51:17.846Z,19.70
2023-04-09T06:52:19.637Z,20.27
2023-04-09T06:53:21.403Z,19.15
2023-04-09T06:54:23.070Z,19.10
2023-04-09T06:55:24.791Z,22.98
2023-04-09T06:56:26.485Z,16.77
2023-04-09T06:57:28.208Z,19.40
2023-04-09T06:58:29.906Z,18.63
2023-04-09T06:59:31.587Z,20.63
2023-04-09T07:00:33.316Z,19.52
2023-04-09T07:01:35.081Z,20.38
2023-04-09T07:02:37.275Z,29.65
2023-04-09T07:03:39.258Z,26.77
2023-04-09T07:04:41.082Z,20.63
2023-04-09T07:05:42.812Z,19.90
2023-04-09T07:06:44.465Z,18.50
2023-04-09T07:07:46.118Z,17.73
2023-04-09T07:08:47.828Z,23.55
2023-04-09T07:09:49.480Z,19.37
2023-04-09T07:10:51.190Z,20.13
2023-04-09T07:11:52.993Z,15.27
2023-04-09T07:12:54.649Z,17.95
2023-04-09T07:13:56.315Z,23.05
2023-04-09T07:15:01.528Z,18.05
2023-04-09T07:16:03.244Z,22.48
2023-04-09T07:17:04.998Z,17.67
2023-04-09T07:18:07.817Z,14.65
2023-04-09T07:19:09.523Z,17.52
2023-04-09T07:20:11.771Z,17.93
2023-04-09T07:21:13.406Z,18.65
2023-04-09T07:22:15.067Z,15.63
2023-04-09T07:23:16.720Z,13.40
2023-04-09T07:24:18.412Z,14.55
2023-04-09T07:25:20.141Z,17.13
2023-04-09T07:26:21.929Z,15.02
2023-04-09T07:27:27.994Z,17.92
2023-04-09T07:28:29.706Z,15.57
2023-04-09T07:29:31.376Z,21.55
2023-04-09T07:30:33.127Z,16.17
2023-04-09T07:31:36.029Z,14.75
2023-04-09T07:32:38.229Z,17.50
2023-04-09T07:33:40.732Z,15.45
2023-04-09T07:34:43.903Z,20.90
2023-04-09T07:35:45.694Z,21.05
2023-04-09T07:36:47.442Z,19.17
2023-04-09T07:37:49.114Z,16.13
2023-04-09T07:38:51.140Z,14.05
2023-04-09T07:39:53.182Z,17.00
2023-04-09T07:40:54.891Z,16.77
2023-04-09T07:41:56.792Z,18.20
2023-04-09T07:42:58.423Z,18.15
2023-04-09T07:44:00.049Z,16.05
2023-04-09T07:45:01.772Z,16.90
2023-04-09T07:46:03.497Z,17.63
2023-04-09T07:47:06.891Z,16.83
2023-04-09T07:48:08.641Z,15.95
2023-04-09T07:49:10.361Z,18.77
2023-04-09T07:50:12.445Z,16.05
2023-04-09T07:51:14.098Z,16.20
2023-04-09T07:52:15.846Z,18.13
2023-04-09T07:53:17.500Z,16.55
2023-04-09T07:54:19.187Z,18.88
2023-04-09T07:55:20.880Z,16.85
2023-04-09T07:56:22.600Z,15.55
2023-04-09T07:57:24.359Z,15.90
2023-04-09T07:58:26.067Z,13.25
2023-04-09T07:59:27.862Z,17.02
2023-04-09T08:00:29.669Z,14.38
2023-04-09T08:01:31.411Z,16.63
2023-04-09T08:02:33.236Z,15.95
2023-04-09T08:03:35.198Z,19.73
2023-04-09T08:04:37.256Z,19.10
2023-04-09T08:05:39.010Z,11.98
2023-04-09T08:06:40.698Z,11.63
2023-04-09T08:07:42.409Z,13.05
2023-04-09T08:08:44.757Z,13.40
2023-04-09T08:09:46.414Z,16.40
2023-04-09T08:10:48.126Z,13.25
2023-04-09T08:11:50.135Z,12.27
2023-04-09T08:12:51.867Z,18.80
2023-04-09T08:13:54.062Z,15.77
2023-04-09T08:14:55.748Z,14.52
2023-04-09T08:16:01.338Z,17.80
2023-04-09T08:17:03.174Z,16.83
2023-04-09T08:18:04.939Z,16.20
2023-04-09T08:19:06.748Z,17.67
2023-04-09T08:20:09.105Z,14.15
2023-04-09T08:21:10.937Z,14.90
2023-04-09T08:22:12.577Z,17.17
2023-04-09T08:23:14.219Z,17.95
2023-04-09T08:24:16.349Z,18.33
2023-04-09T08:25:18.086Z,16.60
2023-04-09T08:26:19.790Z,13.50
2023-04-09T08:27:21.929Z,12.80
2023-04-09T08:28:23.903Z,15.00
2023-04-09T08:29:26.835Z,19.90
2023-04-09T08:30:28.533Z,17.30
2023-04-09T08:31:30.247Z,15.45
2023-04-09T08:32:31.990Z,16.03
2023-04-09T08:33:33.717Z,13.07
2023-04-09T08:34:35.457Z,11.48
2023-04-09T08:35:37.113Z,14.45
2023-04-09T08:36:38.793Z,16.92
2023-04-09T08:37:40.653Z,17.98
2023-04-09T08:38:42.405Z,12.95
2023-04-09T08:39:44.193Z,14.90
2023-04-09T08:40:45.903Z,15.55
2023-04-09T08:41:47.772Z,13.60
2023-04-09T08:42:56.617Z,13.13
2023-04-09T08:43:59.924Z,13.18
2023-04-09T08:45:05.094Z,11.85
2023-04-09T08:46:06.944Z,14.18
2023-04-09T08:47:09.226Z,16.77
2023-04-09T08:48:13.952Z,13.35
2023-04-09T08:49:16.079Z,15.43
2023-04-09T08:50:18.060Z,18.00
2023-04-09T08:51:21.641Z,13.55
2023-04-09T08:52:34.994Z,14.93
2023-04-09T08:53:37.663Z,11.10
2023-04-09T08:54:39.515Z,13.93
2023-04-09T08:55:48.231Z,14.20
2023-04-09T08:56:49.865Z,15.52
2023-04-09T08:57:51.493Z,15.02
2023-04-09T08:58:54.151Z,14.98
2023-04-09T08:59:55.982Z,16.60
2023-04-09T09:00:57.688Z,15.02
2023-04-09T09:02:12.495Z,16.63
2023-04-09T09:03:14.659Z,13.73
2023-04-09T09:04:16.530Z,16.60
2023-04-09T09:05:36.137Z,15.13
2023-04-09T09:06:41.880Z,15.20
2023-04-09T09:07:53.761Z,13.55
2023-04-09T09:09:06.152Z,15.70
2023-04-09T09:10:08.762Z,13.20
2023-04-09T09:11:10.501Z,13.75
2023-04-09T09:12:12.271Z,14.77
2023-04-09T09:13:23.193Z,15.18
2023-04-09T09:14:24.904Z,15.65
2023-04-09T09:15:29.138Z,17.50
2023-04-09T09:16:31.014Z,21.83
2023-04-09T09:17:33.027Z,29.95
2023-04-09T09:18:43.050Z,36.70
2023-04-09T09:19:44.882Z,30.02
2023-04-09T09:20:46.635Z,35.42
2023-04-09T09:21:56.500Z,36.08
2023-04-09T09:22:58.192Z,18.30
2023-04-09T09:23:59.872Z,15.95
2023-04-09T09:25:01.580Z,14.90
2023-04-09T09:26:12.473Z,16.63
2023-04-09T09:27:31.710Z,18.30
2023-04-09T09:28:35.164Z,22.92
2023-04-09T09:29:41.423Z,20.48
2023-04-09T09:30:43.223Z,13.77
2023-04-09T09:31:50.134Z,15.75
2023-04-09T09:33:13.012Z,15.65
2023-04-09T09:34:15.528Z,16.88
2023-04-09T09:35:17.292Z,16.33
2023-04-09T09:36:35.272Z,18.67
2023-04-09T09:37:36.978Z,14.07
2023-04-09T09:38:55.978Z,15.38
2023-04-09T09:40:01.482Z,13.63
2023-04-09T09:41:17.214Z,19.70
2023-04-09T09:42:18.927Z,21.80
2023-04-09T09:43:20.730Z,23.23
2023-04-09T09:44:33.044Z,17.70
2023-04-09T09:45:36.665Z,16.17
2023-04-09T09:46:40.043Z,15.70
2023-04-09T09:47:41.986Z,16.13
2023-04-09T09:48:45.080Z,14.73
2023-04-09T09:49:49.067Z,17.20
2023-04-09T09:50:51.981Z,16.17
2023-04-09T09:51:56.988Z,19.30
2023-04-09T09:53:03.552Z,17.77
2023-04-09T09:54:08.030Z,18.70
2023-04-09T09:55:13.381Z,17.92
2023-04-09T09:56:18.914Z,16.33
2023-04-09T09:57:20.941Z,14.18
2023-04-09T09:58:27.833Z,14.02
2023-04-09T09:59:34.592Z,15.47
2023-04-09T10:00:37.551Z,15.20
2023-04-09T10:01:40.508Z,18.15
2023-04-09T10:02:53.943Z,22.58
2023-04-09T10:03:59.987Z,14.95
2023-04-09T10:05:01.757Z,15.25
2023-04-09T10:06:03.558Z,14.52
2023-04-09T10:07:06.918Z,14.60
2023-04-09T10:08:10.597Z,17.23
2023-04-09T10:09:13.368Z,18.42
2023-04-09T10:10:15.549Z,16.53
2023-04-09T10:11:18.831Z,19.58
2023-04-09T10:12:23.016Z,17.88
2023-04-09T10:13:44.339Z,12.32
2023-04-09T10:14:46.354Z,9.82
2023-04-09T10:15:48.917Z,11.73
2023-04-09T10:16:51.139Z,12.55
2023-04-09T10:17:52.861Z,13.57
2023-04-09T10:18:59.742Z,17.88
2023-04-09T10:20:24.171Z,14.73
2023-04-09T10:21:31.534Z,13.40
2023-04-09T10:22:34.711Z,10.93
2023-04-09T10:23:44.674Z,10.05
2023-04-09T10:24:46.893Z,12.38
2023-04-09T10:25:48.642Z,11.07
2023-04-09T10:26:54.659Z,10.18
2023-04-09T10:28:02.908Z,11.95
2023-04-09T10:29:06.679Z,11.23
2023-04-09T10:30:08.859Z,12.93
2023-04-09T10:31:11.026Z,11.73
2023-04-09T10:32:17.680Z,14.23
2023-04-09T10:33:24.149Z,16.90
2023-04-09T10:34:27.640Z,16.00
2023-04-09T10:35:29.382Z,11.68
2023-04-09T10:36:31.047Z,12.50
2023-04-09T10:37:36.212Z,12.63
2023-04-09T10:38:44.959Z,8.80
2023-04-09T10:39:48.181Z,14.25
2023-04-09T10:40:51.107Z,12.02
2023-04-09T10:41:54.850Z,11.60
2023-04-09T10:42:58.164Z,9.87
2023-04-09T10:43:59.804Z,11.68
2023-04-09T10:45:12.908Z,12.40
2023-04-09T10:46:30.979Z,12.60
2023-04-09T10:47:35.212Z,11.00
2023-04-09T10:48:36.876Z,11.07
2023-04-09T10:49:42.488Z,10.77
2023-04-09T10:50:44.787Z,10.48
2023-04-09T10:51:52.234Z,10.75
2023-04-09T10:52:56.354Z,10.48
2023-04-09T10:53:58.058Z,11.23
2023-04-09T10:54:59.770Z,10.73
2023-04-09T10:56:01.483Z,10.70
2023-04-09T10:57:08.967Z,11.88
2023-04-09T10:58:13.544Z,13.52
2023-04-09T10:59:15.554Z,10.05
2023-04-09T11:00:17.254Z,11.85
2023-04-09T11:01:22.349Z,16.13
2023-04-09T11:02:39.911Z,15.18
2023-04-09T11:03:45.186Z,12.15
2023-04-09T11:04:55.246Z,9.40
2023-04-09T11:06:04.883Z,9.85
2023-04-09T11:07:08.375Z,10.88
2023-04-09T11:08:14.515Z,12.43
2023-04-09T11:09:16.227Z,8.93
2023-04-09T11:10:18.757Z,11.05
2023-04-09T11:11:26.602Z,11.48
2023-04-09T11:12:28.227Z,14.98
2023-04-09T11:13:31.522Z,11.60
2023-04-09T11:14:36.046Z,13.55
2023-04-09T11:15:39.286Z,10.83
2023-04-09T11:16:41.029Z,12.23
2023-04-09T11:17:43.407Z,9.27
2023-04-09T11:18:45.242Z,8.93
2023-04-09T11:19:47.366Z,10.90
2023-04-09T11:20:49.418Z,8.80
2023-04-09T11:21:51.168Z,9.85
2023-04-09T11:22:54.970Z,9.07
2023-04-09T11:23:56.711Z,8.07
2023-04-09T11:24:58.399Z,8.45
2023-04-09T11:26:00.079Z,9.40
2023-04-09T11:27:01.830Z,8.35
2023-04-09T11:28:04.371Z,9.00
2023-04-09T11:29:07.104Z,8.45
2023-04-09T11:30:09.256Z,8.73
2023-04-09T11:31:10.970Z,10.52
2023-04-09T11:32:13.169Z,8.48
2023-04-09T11:33:16.017Z,8.02
2023-04-09T11:34:19.333Z,9.48
2023-04-09T11:35:22.458Z,8.50
2023-04-09T11:36:24.143Z,8.50
2023-04-09T11:37:25.932Z,7.82
2023-04-09T11:38:27.657Z,8.30
2023-04-09T11:39:29.379Z,8.60
2023-04-09T11:40:31.394Z,7.47
2023-04-09T11:41:37.692Z,7.10
2023-04-09T11:42:39.438Z,7.72
2023-04-09T11:43:41.186Z,8.85
2023-04-09T11:44:45.253Z,8.38
2023-04-09T11:45:47.086Z,8.50
2023-04-09T11:46:49.442Z,7.53
2023-04-09T11:47:51.816Z,7.03
2023-04-09T11:48:54.225Z,6.82
2023-04-09T11:49:56.159Z,8.68
2023-04-09T11:50:58.110Z,7.13
2023-04-09T11:51:59.986Z,8.38
2023-04-09T11:53:01.669Z,6.95
2023-04-09T11:54:03.770Z,7.43
2023-04-09T11:55:06.336Z,7.88
2023-04-09T11:56:08.043Z,8.00
2023-04-09T11:57:09.849Z,9.07
2023-04-09T11:58:11.534Z,7.93
2023-04-09T11:59:15.221Z,7.57
2023-04-09T12:00:17.897Z,8.05
2023-04-09T12:01:22.391Z,8.48
2023-04-09T12:02:24.155Z,7.90
2023-04-09T12:03:33.007Z,7.70
2023-04-09T12:04:35.247Z,8.13
2023-04-09T12:05:38.995Z,8.80
2023-04-09T12:06:42.413Z,7.63
2023-04-09T12:07:55.452Z,7.30
2023-04-09T12:08:59.406Z,8.75
2023-04-09T12:10:05.943Z,7.47
2023-04-09T12:11:08.953Z,7.28
2023-04-09T12:12:10.640Z,6.95
2023-04-09T12:13:12.360Z,6.93
2023-04-09T12:14:16.174Z,7.35
2023-04-09T12:15:22.811Z,9.10
2023-04-09T12:16:24.536Z,7.78
2023-04-09T12:17:26.630Z,7.78
2023-04-09T12:18:28.650Z,7.30
2023-04-09T12:19:31.080Z,8.77
2023-04-09T12:20:47.666Z,7.22
2023-04-09T12:21:50.763Z,6.85
2023-04-09T12:22:52.485Z,6.75
2023-04-09T12:23:54.290Z,6.22
2023-04-09T12:24:56.023Z,6.97
2023-04-09T12:25:58.213Z,8.40
2023-04-09T12:26:59.885Z,6.90
2023-04-09T12:28:01.812Z,7.50
2023-04-09T12:29:03.556Z,9.67
2023-04-09T12:30:06.076Z,8.52
2023-04-09T12:31:10.679Z,7.93
2023-04-09T12:32:12.919Z,8.57
2023-04-09T12:33:14.678Z,10.05
2023-04-09T12:34:16.489Z,13.07
2023-04-09T12:35:18.325Z,9.10
2023-04-09T12:36:20.056Z,9.50
2023-04-09T12:37:21.866Z,7.97
2023-04-09T12:38:23.557Z,8.57
2023-04-09T12:39:25.316Z,9.80
2023-04-09T12:40:27.493Z,10.68
2023-04-09T12:41:29.209Z,11.88
2023-04-09T12:42:31.049Z,12.57
2023-04-09T12:43:32.702Z,11.32
2023-04-09T12:44:34.511Z,11.98
2023-04-09T12:45:36.256Z,10.95
2023-04-09T12:46:38.338Z,12.43
2023-04-09T12:47:40.671Z,13.13
2023-04-09T12:48:42.780Z,11.65
2023-04-09T12:49:45.072Z,11.50
2023-04-09T12:50:46.862Z,11.30
2023-04-09T12:51:48.581Z,11.18
2023-04-09T12:52:50.675Z,11.23
2023-04-09T12:53:52.640Z,12.07
2023-04-09T12:54:54.714Z,12.27
2023-04-09T12:55:56.687Z,11.32
2023-04-09T12:56:58.328Z,14.00
2023-04-09T12:57:59.969Z,12.60
2023-04-09T12:59:01.686Z,12.55
2023-04-09T13:00:03.540Z,11.13
2023-04-09T13:01:05.877Z,11.93
2023-04-09T13:02:08.099Z,11.88
2023-04-09T13:03:10.082Z,13.77
2023-04-09T13:04:12.043Z,12.07
2023-04-09T13:05:13.971Z,12.73
2023-04-09T13:06:15.604Z,12.43
2023-04-09T13:07:17.725Z,11.98
2023-04-09T13:08:19.419Z,14.40
2023-04-09T13:09:21.199Z,14.77
2023-04-09T13:10:22.972Z,11.60
2023-04-09T13:11:24.723Z,13.23
2023-04-09T13:12:26.497Z,11.90
2023-04-09T13:13:28.332Z,11.48
2023-04-09T13:14:30.069Z,12.18
2023-04-09T13:15:31.753Z,9.77
2023-04-09T13:16:33.662Z,10.48
2023-04-09T13:17:35.506Z,12.15
2023-04-09T13:18:37.623Z,12.32
2023-04-09T13:19:40.856Z,12.73
2023-04-09T13:20:44.232Z,12.73
2023-04-09T13:21:46.144Z,11.65
2023-04-09T13:22:47.860Z,13.43
2023-04-09T13:23:49.606Z,12.35
2023-04-09T13:24:51.229Z,11.20
2023-04-09T13:25:52.911Z,12.07
2023-04-09T13:26:54.664Z,12.32
2023-04-09T13:27:56.437Z,11.48
2023-04-09T13:28:58.218Z,10.88
2023-04-09T13:29:59.930Z,11.15
2023-04-09T13:31:03.003Z,9.70
2023-04-09T13:32:04.914Z,10.90
2023-04-09T13:33:06.701Z,11.52
2023-04-09T13:34:08.418Z,9.85
2023-04-09T13:35:10.357Z,11.82
2023-04-09T13:36:12.022Z,13.18
2023-04-09T13:37:13.705Z,12.77
2023-04-09T13:38:15.413Z,10.52